createdAt,value
2018-04-17T00:01:15.427Z,99850.25
2018-04-17T00:03:42.981Z,99848.25
2018-04-17T00:06:10.550Z,99851.32
2018-04-17T00:08:38.086Z,99849.52
2018-04-17T00:11:05.717Z,99848.78
2018-04-17T00:13:33.238Z,99856.34
2018-04-17T00:16:00.791Z,99855.55
2018-04-17T00:18:28.318Z,99858.27
2018-04-17T00:20:55.954Z,99854.83
2018-04-17T00:23:23.496Z,99855.87
2018-04-17T00:25:51.074Z,99855.39
2018-04-17T00:28:18.597Z,99856.10
2018-04-17T00:30:46.205Z,99864.37
2018-04-17T00:33:13.729Z,99872.59
2018-04-17T00:35:41.287Z,99861.91
2018-04-17T00:38:08.809Z,99864.44
2018-04-17T00:40:36.339Z,99863.27
2018-04-17T00:43:03.889Z,99870.61
2018-04-17T00:45:31.448Z,99869.68
2018-04-17T00:47:58.993Z,99873.17
2018-04-17T00:50:26.522Z,99873.94
2018-04-17T00:52:54.077Z,99874.05
2018-04-17T00:55:21.673Z,99869.11
2018-04-17T00:57:49.245Z,99872.67
2018-04-17T01:00:16.802Z,99862.27
2018-04-17T01:02:44.357Z,99866.07
2018-04-17T01:05:11.889Z,99862.22
2018-04-17T01:07:39.441Z,99858.94
2018-04-17T01:10:06.995Z,99863.95
2018-04-17T01:12:34.543Z,99867.79
2018-04-17T01:15:02.050Z,99873.27
2018-04-17T01:17:29.722Z,99868.03
2018-04-17T01:19:57.247Z,99856.72
2018-04-17T01:22:24.854Z,99865.16
2018-04-17T01:24:52.406Z,99862.83
2018-04-17T01:27:19.960Z,99860.38
2018-04-17T01:29:47.477Z,99866.30
2018-04-17T01:32:15.688Z,99870.63
2018-04-17T01:34:43.266Z,99869.92
2018-04-17T01:37:10.815Z,99876.33
2018-04-17T01:39:38.322Z,99871.19
2018-04-17T01:42:05.934Z,99881.89
2018-04-17T01:44:33.471Z,99879.64
2018-04-17T01:47:01.051Z,99884.88
2018-04-17T01:49:28.621Z,99887.72
2018-04-17T01:51:56.280Z,99891.41
2018-04-17T01:54:27.348Z,99889.66
2018-04-17T01:56:55.284Z,99891.88
2018-04-17T01:59:22.839Z,99885.60
2018-04-17T02:01:50.831Z,99890.07
2018-04-17T02:04:18.417Z,99892.39
2018-04-17T02:06:45.974Z,99897.93
2018-04-17T02:09:13.701Z,99909.29
2018-04-17T02:11:41.256Z,99906.31
2018-04-17T02:14:08.824Z,99905.64
2018-04-17T02:16:36.356Z,99908.81
2018-04-17T02:19:03.935Z,99910.14
2018-04-17T02:21:31.457Z,99913.98
2018-04-17T02:23:59.062Z,99913.55
2018-04-17T02:26:26.615Z,99916.42
2018-04-17T02:28:54.173Z,99921.33
2018-04-17T02:31:21.695Z,99916.21
2018-04-17T02:33:49.242Z,99921.59
2018-04-17T02:36:16.774Z,99924.06
2018-04-17T02:38:44.348Z,99927.75
2018-04-17T02:41:11.879Z,99929.70
2018-04-17T02:43:39.535Z,99936.56
2018-04-17T02:46:07.092Z,99941.88
2018-04-17T02:48:34.661Z,99939.47
2018-04-17T02:51:02.215Z,99947.72
2018-04-17T02:53:29.761Z,99946.38
2018-04-17T02:55:57.341Z,99948.98
2018-04-17T02:58:24.884Z,99952.64
2018-04-17T03:00:52.447Z,99949.09
2018-04-17T03:03:20.009Z,99953.72
2018-04-17T03:05:47.547Z,99957.46
2018-04-17T03:08:15.126Z,99957.39
2018-04-17T03:10:42.687Z,99960.09
2018-04-17T03:13:10.359Z,99959.47
2018-04-17T03:15:37.877Z,99954.16
2018-04-17T03:18:05.433Z,99969.92
2018-04-17T03:20:33.026Z,99965.48
2018-04-17T03:23:00.558Z,99961.61
2018-04-17T03:25:28.146Z,99957.94
2018-04-17T03:27:55.709Z,99970.83
2018-04-17T03:30:23.221Z,99964.53
2018-04-17T03:32:50.800Z,99968.92
2018-04-17T03:35:19.238Z,99970.23
2018-04-17T03:37:46.758Z,99973.88
2018-04-17T03:40:14.330Z,99969.31
2018-04-17T03:42:41.830Z,99970.04
2018-04-17T03:45:09.440Z,99970.18
2018-04-17T03:47:36.958Z,99974.14
2018-04-17T03:50:04.561Z,99973.34
2018-04-17T03:52:32.118Z,99975.15
2018-04-17T03:54:59.695Z,99974.31
2018-04-17T03:57:27.218Z,99979.42
2018-04-17T03:59:54.877Z,99980.63
2018-04-17T04:02:22.418Z,99980.45
2018-04-17T04:04:50.428Z,99990.59
2018-04-17T04:07:17.996Z,99996.70
2018-04-17T04:09:45.656Z,99994.78
2018-04-17T04:12:13.209Z,99997.06
2018-04-17T04:14:40.756Z,99996.78
2018-04-17T04:17:20.113Z,100000.70
2018-04-17T04:19:59.531Z,100005.68
2018-04-17T04:22:38.877Z,100010.60
2018-04-17T04:28:08.621Z,100008.31
2018-04-17T04:30:36.264Z,100008.04
2018-04-17T04:33:03.828Z,100010.55
2018-04-17T04:35:31.388Z,100013.64
2018-04-17T04:37:58.897Z,100010.77
2018-04-17T04:40:26.449Z,100007.03
2018-04-17T04:42:54.062Z,100006.95
2018-04-17T04:45:21.647Z,100011.06
2018-04-17T04:47:49.189Z,100016.70
2018-04-17T04:50:16.745Z,100009.33
2018-04-17T04:52:44.269Z,100014.52
2018-04-17T04:55:11.821Z,100016.81
2018-04-17T04:57:39.431Z,100017.96
2018-04-17T05:00:07.002Z,100019.44
2018-04-17T05:02:34.550Z,100021.50
2018-04-17T05:05:02.106Z,100025.88
2018-04-17T05:07:29.658Z,100032.25
2018-04-17T05:09:57.331Z,100032.45
2018-04-17T05:12:24.864Z,100038.41
2018-04-17T05:14:52.401Z,100046.77
2018-04-17T05:17:20.721Z,100046.55
2018-04-17T05:19:48.384Z,100043.86
2018-04-17T05:22:15.942Z,100047.63
2018-04-17T05:24:43.606Z,100057.41
2018-04-17T05:27:11.171Z,100065.69
2018-04-17T05:29:39.298Z,100073.82
2018-04-17T05:32:06.858Z,100075.73
2018-04-17T05:34:34.457Z,100080.87
2018-04-17T05:37:02.035Z,100079.52
2018-04-17T05:39:29.679Z,100086.00
2018-04-17T05:41:57.242Z,100087.97
2018-04-17T05:44:24.796Z,100092.25
2018-04-17T05:46:52.369Z,100101.14
2018-04-17T05:49:20.801Z,100103.05
2018-04-17T05:51:48.342Z,100107.28
2018-04-17T05:54:15.854Z,100111.53
2018-04-17T05:56:43.434Z,100111.84
2018-04-17T05:59:10.974Z,100115.37
2018-04-17T06:01:38.541Z,100120.91
2018-04-17T06:04:06.064Z,100119.28
2018-04-17T06:06:33.616Z,100127.84
2018-04-17T06:09:01.316Z,100127.20
2018-04-17T06:11:28.893Z,100138.23
2018-04-17T06:13:57.143Z,100140.18
2018-04-17T06:16:24.722Z,100142.37
2018-04-17T06:18:52.253Z,100138.19
2018-04-17T06:21:20.801Z,100144.67
2018-04-17T06:23:48.422Z,100140.86
2018-04-17T06:26:16.081Z,100148.42
2018-04-17T06:28:43.635Z,100149.81
2018-04-17T06:31:11.161Z,100164.71
2018-04-17T06:33:39.837Z,100162.89
2018-04-17T06:36:07.567Z,100164.83
2018-04-17T06:38:35.110Z,100165.90
2018-04-17T06:41:02.642Z,100168.56
2018-04-17T06:43:30.201Z,100174.72
2018-04-17T06:45:57.730Z,100178.84
2018-04-17T06:48:25.274Z,100188.38
2018-04-17T06:50:52.802Z,100195.06
2018-04-17T06:53:21.078Z,100196.20
2018-04-17T06:55:48.634Z,100197.58
2018-04-17T06:58:16.159Z,100199.78
2018-04-17T07:00:43.765Z,100200.14
2018-04-17T07:03:11.291Z,100200.86
2018-04-17T07:05:38.841Z,100208.94
2018-04-17T07:08:06.368Z,100202.80
2018-04-17T07:10:33.920Z,100213.02
2018-04-17T07:13:01.556Z,100206.69
2018-04-17T07:15:29.125Z,100212.03
2018-04-17T07:17:56.653Z,100215.59
2018-04-17T07:20:24.213Z,100212.92
2018-04-17T07:22:52.185Z,100212.27
2018-04-17T07:25:19.763Z,100213.54
2018-04-17T07:27:47.316Z,100212.50
2018-04-17T07:30:14.891Z,100213.22
2018-04-17T07:32:42.418Z,100211.54
2018-04-17T07:35:10.099Z,100211.06
2018-04-17T07:37:37.657Z,100219.16
2018-04-17T07:40:05.248Z,100217.02
2018-04-17T07:42:32.778Z,100222.14
2018-04-17T07:45:00.444Z,100226.61
2018-04-17T07:47:29.140Z,100221.90
2018-04-17T07:49:56.709Z,100229.28
2018-04-17T07:52:24.362Z,100227.37
2018-04-17T07:54:52.418Z,100230.41
2018-04-17T07:57:19.992Z,100226.19
2018-04-17T07:59:47.571Z,100233.22
2018-04-17T08:02:15.120Z,100234.52
2018-04-17T08:04:42.699Z,100234.62
2018-04-17T08:07:10.398Z,100234.40
2018-04-17T08:09:37.953Z,100242.18
2018-04-17T08:12:05.527Z,100240.27
2018-04-17T08:14:33.099Z,100243.47
2018-04-17T08:17:00.662Z,100248.40
2018-04-17T08:19:28.331Z,100248.86
2018-04-17T08:21:55.862Z,100246.73
2018-04-17T08:24:23.441Z,100246.23
2018-04-17T08:26:51.017Z,100250.14
2018-04-17T08:29:18.590Z,100245.71
2018-04-17T08:31:46.146Z,100248.53
2018-04-17T08:34:13.676Z,100249.11
2018-04-17T08:36:41.350Z,100253.24
2018-04-17T08:39:08.902Z,100260.78
2018-04-17T08:41:36.454Z,100263.47
2018-04-17T08:44:03.989Z,100265.23
2018-04-17T08:46:31.542Z,100260.07
2018-04-17T08:48:59.078Z,100270.78
2018-04-17T08:51:28.207Z,100263.43
2018-04-17T08:53:55.764Z,100266.98
2018-04-17T08:56:23.317Z,100273.05
2018-04-17T08:58:50.857Z,100272.94
2018-04-17T09:01:18.424Z,100274.23
2018-04-17T09:03:45.973Z,100273.66
2018-04-17T09:06:14.026Z,100269.47
2018-04-17T09:08:41.673Z,100270.24
2018-04-17T09:11:09.298Z,100269.73
2018-04-17T09:13:36.840Z,100273.64
2018-04-17T09:16:04.442Z,100267.00
2018-04-17T09:18:32.902Z,100267.66
2018-04-17T09:21:00.593Z,100263.67
2018-04-17T09:23:32.502Z,100262.39
2018-04-17T09:26:00.194Z,100266.89
2018-04-17T09:28:27.746Z,100263.34
2018-04-17T09:30:55.346Z,100265.20
2018-04-17T09:33:24.400Z,100259.69
2018-04-17T09:35:51.923Z,100263.07
2018-04-17T09:38:22.319Z,100256.89
2018-04-17T09:40:50.030Z,100268.28
2018-04-17T09:43:17.591Z,100266.24
2018-04-17T09:45:45.139Z,100256.03
2018-04-17T09:48:12.716Z,100252.78
2018-04-17T09:50:40.359Z,100249.84
2018-04-17T09:53:07.920Z,100253.48
2018-04-17T09:55:35.448Z,100249.94
2018-04-17T09:58:03.031Z,100251.33
2018-04-17T10:00:30.563Z,100253.45
2018-04-17T10:02:58.201Z,100259.38
2018-04-17T10:05:25.782Z,100257.06
2018-04-17T10:07:53.362Z,100259.99
2018-04-17T10:10:21.000Z,100264.78
2018-04-17T10:12:48.563Z,100261.75
2018-04-17T10:15:17.947Z,100257.14
2018-04-17T10:17:47.376Z,100260.94
2018-04-17T10:20:16.897Z,100257.34
2018-04-17T10:22:44.596Z,100251.01
2018-04-17T10:25:12.904Z,100248.39
2018-04-17T10:27:42.304Z,100251.63
2018-04-17T10:30:10.277Z,100251.66
2018-04-17T10:32:39.372Z,100250.91
2018-04-17T10:35:07.086Z,100251.56
2018-04-17T10:37:35.869Z,100250.41
2018-04-17T10:40:03.662Z,100248.70
2018-04-17T10:42:33.040Z,100259.81
2018-04-17T10:45:00.817Z,100249.88
2018-04-17T10:47:31.417Z,100244.63
2018-04-17T10:50:01.824Z,100249.62
2018-04-17T10:52:29.820Z,100248.89
2018-04-17T10:55:02.131Z,100244.65
2018-04-17T10:57:29.955Z,100247.13
2018-04-17T11:00:00.252Z,100251.52
2018-04-17T11:02:30.273Z,100242.23
2018-04-17T11:04:58.993Z,100242.34
2018-04-17T11:07:27.749Z,100243.38
2018-04-17T11:09:59.236Z,100237.77
2018-04-17T11:12:26.893Z,100238.90
2018-04-17T11:14:54.493Z,100241.48
2018-04-17T11:17:22.100Z,100226.10
2018-04-17T11:19:49.732Z,100229.67
2018-04-17T11:22:17.602Z,100225.85
2018-04-17T11:24:47.273Z,100235.33
2018-04-17T11:27:15.300Z,100236.25
2018-04-17T11:29:42.883Z,100229.20
2018-04-17T11:32:10.459Z,100227.02
2018-04-17T11:34:38.329Z,100220.13
2018-04-17T11:37:05.863Z,100231.30
2018-04-17T11:39:33.418Z,100226.81
2018-04-17T11:42:01.025Z,100224.19
2018-04-17T11:44:28.622Z,100229.33
2018-04-17T11:46:56.324Z,100227.77
2018-04-17T11:49:28.608Z,100211.76
2018-04-17T11:51:59.077Z,100193.78
2018-04-17T11:54:32.163Z,100212.44
2018-04-17T11:57:00.433Z,100219.75
2018-04-17T11:59:28.602Z,100222.72
2018-04-17T12:01:59.061Z,100224.63
2018-04-17T12:04:26.686Z,100222.20
2018-04-17T12:06:54.218Z,100221.65
2018-04-17T12:09:21.842Z,100211.54
2018-04-17T12:11:49.400Z,100212.98
2018-04-17T12:14:16.949Z,100213.13
2018-04-17T12:16:44.457Z,100213.63
2018-04-17T12:19:15.420Z,100210.00
2018-04-17T12:21:43.154Z,100211.38
2018-04-17T12:24:10.857Z,100205.47
2018-04-17T12:26:38.413Z,100201.96
2018-04-17T12:29:05.957Z,100198.95
2018-04-17T12:31:33.531Z,100195.45
2018-04-17T12:34:01.066Z,100196.28
2018-04-17T12:36:28.668Z,100193.67
2018-04-17T12:38:56.475Z,100196.02
2018-04-17T12:41:24.038Z,100198.89
2018-04-17T12:43:51.575Z,100200.56
2018-04-17T12:46:19.294Z,100191.47
2018-04-17T12:48:46.857Z,100202.40
2018-04-17T12:51:14.402Z,100199.03
2018-04-17T12:53:41.976Z,100199.86
2018-04-17T12:56:11.953Z,100200.70
2018-04-17T12:58:40.440Z,100206.55
2018-04-17T13:01:08.030Z,100200.23
2018-04-17T13:03:41.844Z,100199.36
2018-04-17T13:06:09.843Z,100201.89
2018-04-17T13:08:44.115Z,100200.14
2018-04-17T13:11:11.943Z,100195.24
2018-04-17T13:13:44.018Z,100194.22
2018-04-17T13:16:11.803Z,100197.31
2018-04-17T13:18:39.616Z,100195.88
2018-04-17T13:21:07.261Z,100195.94
2018-04-17T13:23:36.462Z,100198.63
2018-04-17T13:26:05.238Z,100199.81
2018-04-17T13:28:37.027Z,100192.45
2018-04-17T13:31:04.851Z,100188.27
2018-04-17T13:33:34.896Z,100193.89
2018-04-17T13:36:03.874Z,100197.33
2018-04-17T13:38:36.294Z,100190.99
2018-04-17T13:41:09.206Z,100182.52
2018-04-17T13:43:37.725Z,100181.00
2018-04-17T13:46:10.494Z,100179.21
2018-04-17T13:48:41.230Z,100181.77
2018-04-17T13:51:10.539Z,100182.05
2018-04-17T13:53:45.056Z,100176.41
2018-04-17T13:56:17.263Z,100188.10
2018-04-17T13:58:47.488Z,100186.87
2018-04-17T14:01:19.762Z,100178.31
2018-04-17T14:03:47.947Z,100174.48
2018-04-17T14:06:17.748Z,100179.31
2018-04-17T14:08:47.647Z,100185.66
2018-04-17T14:11:17.663Z,100183.83
2018-04-17T14:13:50.478Z,100185.86
2018-04-17T14:16:18.562Z,100184.65
2018-04-17T14:18:49.810Z,100178.03
2018-04-17T14:21:17.492Z,100183.65
2018-04-17T14:23:48.334Z,100183.89
2018-04-17T14:26:16.097Z,100183.37
2018-04-17T14:28:44.275Z,100182.66
2018-04-17T14:31:11.798Z,100193.41
2018-04-17T14:33:39.389Z,100186.50
2018-04-17T14:36:06.930Z,100188.73
2018-04-17T14:38:34.480Z,100190.58
2018-04-17T14:41:02.015Z,100193.02
2018-04-17T14:43:29.585Z,100193.17
2018-04-17T14:45:57.963Z,100174.42
2018-04-17T14:48:25.540Z,100188.13
2018-04-17T14:50:53.065Z,100184.69
2018-04-17T14:53:20.621Z,100192.27
2018-04-17T14:55:48.220Z,100192.16
2018-04-17T14:58:15.770Z,100187.16
2018-04-17T15:00:43.330Z,100186.86
2018-04-17T15:03:10.903Z,100184.55
2018-04-17T15:05:38.479Z,100189.77
2018-04-17T15:08:06.058Z,100190.31
2018-04-17T15:10:33.609Z,100199.25
2018-04-17T15:13:01.190Z,100188.13
2018-04-17T15:15:28.817Z,100195.43
2018-04-17T15:17:56.481Z,100196.22
2018-04-17T15:20:24.019Z,100190.88
2018-04-17T15:22:51.590Z,100197.42
2018-04-17T15:25:19.831Z,100197.55
2018-04-17T15:27:47.737Z,100205.15
2018-04-17T15:30:15.408Z,100193.44
2018-04-17T15:32:44.082Z,100193.81
2018-04-17T15:35:12.055Z,100192.05
2018-04-17T15:37:39.585Z,100205.24
2018-04-17T15:40:08.186Z,100194.13
2018-04-17T15:42:35.709Z,100195.54
2018-04-17T15:45:03.291Z,100200.46
2018-04-17T15:47:31.714Z,100196.44
2018-04-17T15:49:59.321Z,100213.02
2018-04-17T15:52:27.072Z,100214.65
2018-04-17T15:54:54.625Z,100214.01
2018-04-17T15:57:22.156Z,100216.00
2018-04-17T15:59:50.204Z,100216.82
2018-04-17T16:02:21.342Z,100215.97
2018-04-17T16:04:48.909Z,100216.98
2018-04-17T16:07:16.461Z,100223.84
2018-04-17T16:09:44.066Z,100217.33
2018-04-17T16:12:13.699Z,100227.02
2018-04-17T16:14:42.263Z,100225.73
2018-04-17T16:17:09.890Z,100218.28
2018-04-17T16:19:40.121Z,100220.04
2018-04-17T16:22:08.389Z,100225.43
2018-04-17T16:24:39.155Z,100226.73
2018-04-17T16:27:08.047Z,100232.78
2018-04-17T16:29:41.538Z,100230.70
2018-04-17T16:32:12.734Z,100225.47
2018-04-17T16:34:41.982Z,100232.91
2018-04-17T16:37:12.388Z,100221.97
2018-04-17T16:39:45.286Z,100227.55
2018-04-17T16:42:16.196Z,100231.54
2018-04-17T16:44:48.459Z,100228.70
2018-04-17T16:47:18.476Z,100236.22
2018-04-17T16:49:48.683Z,100237.78
2018-04-17T16:52:18.307Z,100239.45
2018-04-17T16:54:50.348Z,100232.62
2018-04-17T16:57:19.933Z,100243.36
2018-04-17T16:59:49.978Z,100241.50
2018-04-17T17:02:17.606Z,100248.45
2018-04-17T17:04:46.734Z,100242.77
2018-04-17T17:07:15.206Z,100246.11
2018-04-17T17:09:44.768Z,100246.09
2018-04-17T17:12:13.339Z,100246.41
2018-04-17T17:14:45.193Z,100247.07
2018-04-17T17:17:14.579Z,100247.11
2018-04-17T17:19:42.146Z,100245.77
2018-04-17T17:22:10.031Z,100252.92
2018-04-17T17:24:39.034Z,100254.52
2018-04-17T17:27:06.814Z,100254.07
2018-04-17T17:29:39.504Z,100257.31
2018-04-17T17:32:07.598Z,100263.77
2018-04-17T17:34:37.292Z,100265.44
2018-04-17T17:37:07.475Z,100274.05
2018-04-17T17:39:35.150Z,100277.02
2018-04-17T17:42:03.524Z,100274.57
2018-04-17T17:44:34.177Z,100286.45
2018-04-17T17:47:04.770Z,100292.08
2018-04-17T17:49:33.454Z,100290.38
2018-04-17T17:52:03.088Z,100296.80
2018-04-17T17:54:32.107Z,100288.39
2018-04-17T17:57:02.519Z,100286.37
2018-04-17T17:59:30.668Z,100291.61
2018-04-17T18:01:58.831Z,100293.42
2018-04-17T18:04:29.331Z,100296.59
2018-04-17T18:06:57.228Z,100301.28
2018-04-17T18:09:27.240Z,100297.56
2018-04-17T18:11:55.230Z,100297.70
2018-04-17T18:14:23.185Z,100300.23
2018-04-17T18:16:51.356Z,100305.74
2018-04-17T18:19:19.537Z,100306.67
2018-04-17T18:21:47.087Z,100306.62
2018-04-17T18:24:14.753Z,100305.78
2018-04-17T18:26:42.289Z,100306.14
2018-04-17T18:29:09.979Z,100311.33
2018-04-17T18:31:37.493Z,100316.11
2018-04-17T18:34:05.066Z,100313.95
2018-04-17T18:36:32.598Z,100326.36
2018-04-17T18:39:00.200Z,100326.74
2018-04-17T18:41:27.734Z,100331.13
2018-04-17T18:43:55.256Z,100326.80
2018-04-17T18:46:22.809Z,100341.04
2018-04-17T18:48:50.577Z,100340.33
2018-04-17T18:51:18.733Z,100342.13
2018-04-17T18:53:46.433Z,100349.74
2018-04-17T18:56:14.168Z,100357.70
2018-04-17T18:58:41.718Z,100364.50
2018-04-17T19:01:09.345Z,100365.46
2018-04-17T19:03:37.649Z,100362.87
2018-04-17T19:06:05.284Z,100377.80
2018-04-17T19:08:32.826Z,100375.56
2018-04-17T19:11:00.430Z,100368.56
2018-04-17T19:13:27.991Z,100376.72
2018-04-17T19:15:55.652Z,100376.61
2018-04-17T19:18:23.170Z,100384.44
2018-04-17T19:20:50.690Z,100395.20
2018-04-17T19:23:18.245Z,100395.06
2018-04-17T19:25:45.758Z,100400.14
2018-04-17T19:28:13.317Z,100404.69
2018-04-17T19:30:40.848Z,100398.94
2018-04-17T19:33:11.043Z,100401.48
2018-04-17T19:35:38.800Z,100402.48
2018-04-17T19:38:06.457Z,100403.36
2018-04-17T19:40:34.012Z,100411.21
2018-04-17T19:43:02.221Z,100412.27
2018-04-17T19:45:29.879Z,100408.69
2018-04-17T19:47:57.413Z,100403.63
2018-04-17T19:50:24.966Z,100418.37
2018-04-17T19:52:52.518Z,100415.03
2018-04-17T19:55:20.073Z,100420.20
2018-04-17T19:57:47.620Z,100421.22
2018-04-17T20:00:15.319Z,100419.35
2018-04-17T20:02:42.853Z,100424.43
2018-04-17T20:05:10.406Z,100427.30
2018-04-17T20:07:37.926Z,100423.15
2018-04-17T20:10:05.504Z,100432.82
2018-04-17T20:12:33.034Z,100439.01
2018-04-17T20:15:00.588Z,100441.23
2018-04-17T20:17:28.138Z,100440.69
2018-04-17T20:19:55.691Z,100438.73
2018-04-17T20:22:23.314Z,100437.83
2018-04-17T20:24:50.902Z,100434.64
2018-04-17T20:27:18.565Z,100438.59
2018-04-17T20:29:46.100Z,100442.24
2018-04-17T20:32:13.682Z,100441.02
2018-04-17T20:34:41.210Z,100446.02
2018-04-17T20:37:08.907Z,100441.91
2018-04-17T20:39:36.460Z,100441.31
2018-04-17T20:42:04.037Z,100443.13
2018-04-17T20:44:32.775Z,100439.25
2018-04-17T20:47:00.468Z,100443.08
2018-04-17T20:49:28.936Z,100442.57
2018-04-17T20:51:56.890Z,100441.56
2018-04-17T20:54:25.248Z,100442.91
2018-04-17T20:56:52.830Z,100443.50
2018-04-17T20:59:20.654Z,100444.84
2018-04-17T21:01:48.527Z,100440.65
2018-04-17T21:04:16.134Z,100446.30
2018-04-17T21:06:43.662Z,100445.69
2018-04-17T21:09:11.236Z,100445.42
2018-04-17T21:11:38.793Z,100450.70
2018-04-17T21:14:06.392Z,100447.72
2018-04-17T21:16:33.918Z,100446.42
2018-04-17T21:19:01.498Z,100446.88
2018-04-17T21:21:29.074Z,100449.98
2018-04-17T21:23:56.599Z,100459.86
2018-04-17T21:26:24.202Z,100460.14
2018-04-17T21:28:51.755Z,100463.86
2018-04-17T21:31:19.334Z,100463.88
2018-04-17T21:33:46.861Z,100465.52
2018-04-17T21:36:14.449Z,100470.95
2018-04-17T21:38:41.965Z,100470.11
2018-04-17T21:41:09.517Z,100467.08
2018-04-17T21:43:37.045Z,100469.12
2018-04-17T21:46:04.595Z,100467.47
2018-04-17T21:48:32.697Z,100470.70
2018-04-17T21:51:00.225Z,100475.22
2018-04-17T21:53:27.872Z,100467.97
2018-04-17T21:55:55.419Z,100476.45
2018-04-17T21:58:22.984Z,100476.81
2018-04-17T22:00:50.641Z,100483.23
2018-04-17T22:03:18.301Z,100484.13
2018-04-17T22:05:45.860Z,100476.87
2018-04-17T22:08:13.523Z,100478.20
2018-04-17T22:10:41.041Z,100485.20
2018-04-17T22:13:08.644Z,100489.06
2018-04-17T22:15:36.199Z,100491.98
2018-04-17T22:18:03.773Z,100493.08
2018-04-17T22:20:31.301Z,100495.89
2018-04-17T22:23:01.754Z,100504.48
2018-04-17T22:25:29.562Z,100505.78
2018-04-17T22:27:57.141Z,100500.05
2018-04-17T22:30:24.732Z,100501.73
2018-04-17T22:32:52.263Z,100514.00
2018-04-17T22:35:20.791Z,100517.39
2018-04-17T22:37:48.319Z,100519.63
2018-04-17T22:40:15.922Z,100522.66
2018-04-17T22:42:43.474Z,100523.12
2018-04-17T22:45:11.074Z,100530.08
2018-04-17T22:47:38.627Z,100530.59
2018-04-17T22:50:06.232Z,100533.30
2018-04-17T22:52:33.783Z,100523.95
2018-04-17T22:55:01.363Z,100534.42
2018-04-17T22:57:28.969Z,100528.67
2018-04-17T22:59:56.540Z,100531.41
2018-04-17T23:02:24.095Z,100535.28
2018-04-17T23:04:51.619Z,100533.42
2018-04-17T23:07:19.190Z,100542.56
2018-04-17T23:09:46.811Z,100541.98
2018-04-17T23:12:14.370Z,100547.56
2018-04-17T23:14:42.046Z,100543.25
2018-04-17T23:17:09.606Z,100539.71
2018-04-17T23:19:37.125Z,100544.30
2018-04-17T23:22:04.811Z,100544.17
2018-04-17T23:24:32.986Z,100551.68
2018-04-17T23:27:00.708Z,100556.63
2018-04-17T23:29:28.265Z,100554.61
2018-04-17T23:31:56.138Z,100553.20
2018-04-17T23:34:23.670Z,100555.89
2018-04-17T23:36:51.297Z,100559.77
2018-04-17T23:39:18.854Z,100559.34
2018-04-17T23:41:46.430Z,100559.70
2018-04-17T23:44:14.002Z,100569.78
2018-04-17T23:46:41.551Z,100566.80
2018-04-17T23:49:09.801Z,100560.45
2018-04-17T23:51:37.336Z,100560.51
2018-04-17T23:54:05.862Z,100558.23
2018-04-17T23:56:34.793Z,100568.55
2018-04-17T23:59:03.118Z,100570.67
